Time;durP1;ratioP1;P1;durP2;ratioP2;P2;SDS_P1;SDS_P2;PMS_P1;PMS_P2;Temp;Humidity;BMP_temperature;BMP_pressure;BME280_temperature;BME280_humidity;BME280_pressure;Samples;Min_cycle;Max_cycle;Signal;HPM_P1;HPM_P2
2023/08/14 00:00:31;;;;;;;13.40;7.17;;;21.80;84.60;;;;;;5050508;28;20212;-79
2023/08/14 00:02:57;;;;;;;14.73;7.33;;;21.80;84.40;;;;;;5039260;28;21371;-80
2023/08/14 00:05:23;;;;;;;11.20;6.53;;;21.70;84.30;;;;;;5044584;28;20437;-79
2023/08/14 00:07:48;;;;;;;9.40;6.47;;;21.70;84.40;;;;;;5043219;28;20283;-78
2023/08/14 00:10:14;;;;;;;9.50;6.20;;;21.70;84.40;;;;;;5039138;28;20219;-79
2023/08/14 00:12:40;;;;;;;15.40;6.40;;;21.60;84.60;;;;;;5043115;28;20205;-81
2023/08/14 00:15:06;;;;;;;10.93;6.80;;;21.70;84.90;;;;;;5047930;28;20228;-78
2023/08/14 00:17:31;;;;;;;12.93;6.43;;;21.60;84.70;;;;;;5037863;28;20183;-79
2023/08/14 00:19:57;;;;;;;8.20;6.73;;;21.70;84.70;;;;;;5046115;28;20518;-80
2023/08/14 00:22:23;;;;;;;13.37;7.50;;;21.80;84.30;;;;;;5050034;28;20195;-79
2023/08/14 00:24:49;;;;;;;10.10;6.50;;;21.80;84.10;;;;;;5052342;28;20419;-80
2023/08/14 00:27:15;;;;;;;10.50;6.87;;;21.80;84.30;;;;;;5039198;28;21003;-80
2023/08/14 00:29:45;;;;;;;10.77;7.33;;;21.80;84.60;;;;;;5046790;28;20462;-81
2023/08/14 00:32:12;;;;;;;9.63;6.37;;;21.80;84.60;;;;;;5038061;28;20453;-80
2023/08/14 00:34:39;;;;;;;11.50;6.80;;;21.80;84.70;;;;;;5060293;28;20473;-80
2023/08/14 00:37:04;;;;;;;8.07;6.20;;;21.80;84.90;;;;;;5055592;28;20449;-79
2023/08/14 00:39:31;;;;;;;10.97;6.80;;;21.80;85.00;;;;;;5054942;28;20208;-80
2023/08/14 00:41:56;;;;;;;11.33;7.37;;;21.80;85.20;;;;;;5050900;28;20226;-80
2023/08/14 00:44:23;;;;;;;11.60;6.43;;;21.90;85.30;;;;;;5059848;28;20553;-80
2023/08/14 00:46:48;;;;;;;10.33;6.80;;;21.90;85.50;;;;;;5057989;28;20211;-79
2023/08/14 00:49:16;;;;;;;7.90;6.13;;;21.90;85.50;;;;;;5060009;28;20439;-79
2023/08/14 00:51:41;;;;;;;10.10;7.40;;;22.00;85.30;;;;;;5047579;28;20463;-80
2023/08/14 00:54:08;;;;;;;12.33;6.97;;;22.00;84.70;;;;;;5044681;28;20496;-81
2023/08/14 00:56:34;;;;;;;9.93;6.67;;;22.00;84.90;;;;;;5040106;28;20797;-80
2023/08/14 00:59:01;;;;;;;10.70;6.83;;;22.00;84.90;;;;;;5046705;28;20188;-81
2023/08/14 01:01:26;;;;;;;13.77;6.80;;;22.00;85.00;;;;;;5037083;28;20500;-81
2023/08/14 01:03:53;;;;;;;17.53;7.47;;;22.10;85.00;;;;;;5044611;28;20738;-82
2023/08/14 01:06:20;;;;;;;14.37;7.00;;;22.10;84.70;;;;;;5048252;28;20196;-81
2023/08/14 01:08:46;;;;;;;8.20;5.90;;;22.10;84.60;;;;;;5054926;28;20433;-81
2023/08/14 01:11:16;;;;;;;8.50;7.13;;;22.10;84.60;;;;;;5054822;28;20798;-80
2023/08/14 01:14:13;;;;;;;13.23;6.93;;;22.20;84.70;;;;;;5048285;28;20482;-80
2023/08/14 01:16:43;;;;;;;11.40;7.30;;;22.20;84.60;;;;;;5050956;28;20428;-80
2023/08/14 01:19:20;;;;;;;13.50;7.83;;;22.20;84.60;;;;;;5040191;28;20448;-81
2023/08/14 01:22:09;;;;;;;10.97;6.60;;;22.20;84.70;;;;;;5035451;28;20462;-79
2023/08/14 01:24:59;;;;;;;9.10;6.50;;;22.30;84.90;;;;;;5038525;28;20802;-78
2023/08/14 01:27:26;;;;;;;7.40;6.00;;;22.30;84.90;;;;;;5047020;28;20423;-78
2023/08/14 01:29:59;;;;;;;14.00;6.87;;;22.30;84.00;;;;;;5039463;28;20438;-78
2023/08/14 01:32:26;;;;;;;11.20;7.13;;;22.30;82.70;;;;;;5036404;28;20459;-81
2023/08/14 01:34:54;;;;;;;9.70;6.30;;;22.20;83.00;;;;;;5036741;28;20491;-80
2023/08/14 01:37:31;;;;;;;8.20;5.90;;;22.20;82.80;;;;;;5039577;28;20931;-80
2023/08/14 01:40:08;;;;;;;10.83;7.13;;;22.10;83.30;;;;;;5039631;28;20931;-78
2023/08/14 01:42:37;;;;;;;11.43;7.40;;;22.00;83.70;;;;;;5050534;28;20442;-79
2023/08/14 01:45:10;;;;;;;10.80;7.60;;;21.90;84.30;;;;;;5039147;28;20431;-79
2023/08/14 01:47:38;;;;;;;12.40;7.97;;;22.00;84.30;;;;;;5035976;28;20857;-79
2023/08/14 01:50:04;;;;;;;11.80;7.13;;;22.10;83.80;;;;;;5028684;28;20581;-80
2023/08/14 01:52:30;;;;;;;13.10;7.30;;;22.20;83.60;;;;;;5038975;28;20435;-80
2023/08/14 01:55:00;;;;;;;10.10;6.80;;;22.30;83.10;;;;;;5046447;28;20581;-80
2023/08/14 01:57:26;;;;;;;9.40;6.80;;;22.30;83.10;;;;;;5050313;28;20422;-81
2023/08/14 01:59:52;;;;;;;10.43;6.67;;;22.40;82.50;;;;;;5049343;28;20442;-77
2023/08/14 02:02:18;;;;;;;9.57;6.53;;;22.40;82.10;;;;;;5049334;28;20222;-79
2023/08/14 02:04:44;;;;;;;6.77;5.57;;;22.30;81.90;;;;;;5053987;28;20423;-79
2023/08/14 02:07:10;;;;;;;7.70;6.40;;;22.20;81.90;;;;;;5054458;28;20429;-82
2023/08/14 02:09:36;;;;;;;7.83;5.20;;;22.10;82.10;;;;;;5043842;28;20192;-78
2023/08/14 02:12:03;;;;;;;6.97;4.90;;;22.00;82.50;;;;;;5039271;28;20446;-80
2023/08/14 02:14:29;;;;;;;4.87;3.90;;;22.00;82.70;;;;;;5046593;28;20462;-81
2023/08/14 02:17:16;;;;;;;7.70;4.60;;;21.90;82.70;;;;;;5043609;28;20430;-81
2023/08/14 02:19:43;;;;;;;9.77;4.90;;;21.80;82.70;;;;;;5041111;28;20191;-80
2023/08/14 02:22:10;;;;;;;7.97;4.93;;;21.70;83.30;;;;;;5064571;28;20447;-80
2023/08/14 02:24:37;;;;;;;5.57;4.33;;;21.70;83.40;;;;;;5042737;28;20446;-79
2023/08/14 02:27:05;;;;;;;6.70;3.87;;;21.70;83.70;;;;;;5040115;28;20420;-78
2023/08/14 02:29:31;;;;;;;9.53;4.80;;;21.60;83.70;;;;;;5043635;28;20419;-81
2023/08/14 02:31:56;;;;;;;6.60;4.00;;;21.70;84.10;;;;;;5040005;28;20461;-81
2023/08/14 02:34:44;;;;;;;8.00;4.80;;;21.60;84.40;;;;;;5075935;28;20216;-78
2023/08/14 02:37:12;;;;;;;8.10;5.20;;;21.60;85.00;;;;;;5042640;28;20248;-80
2023/08/14 02:39:38;;;;;;;11.40;4.73;;;21.50;85.50;;;;;;5037074;28;21024;-79
2023/08/14 02:42:07;;;;;;;10.50;5.47;;;21.50;86.00;;;;;;5038632;28;20454;-80
2023/08/14 02:44:33;;;;;;;7.50;5.37;;;21.50;86.80;;;;;;5030469;28;20424;-79
2023/08/14 02:46:59;;;;;;;7.07;4.47;;;21.50;87.10;;;;;;5040899;28;20924;-78
2023/08/14 02:49:25;;;;;;;7.30;4.80;;;21.50;87.60;;;;;;5044362;28;20453;-78
2023/08/14 02:51:51;;;;;;;6.80;4.20;;;21.50;87.00;;;;;;5041903;28;20219;-77
2023/08/14 02:54:17;;;;;;;9.20;5.20;;;21.30;86.60;;;;;;5047621;28;20478;-78
2023/08/14 02:56:43;;;;;;;10.30;5.03;;;21.20;86.60;;;;;;5045161;28;20908;-78
2023/08/14 02:59:09;;;;;;;9.23;4.83;;;21.00;86.90;;;;;;5039625;28;20203;-79
2023/08/14 03:01:34;;;;;;;9.50;4.93;;;21.00;87.40;;;;;;5040594;28;20934;-79
2023/08/14 03:04:00;;;;;;;8.90;5.40;;;20.90;87.70;;;;;;5044565;28;20200;-80
2023/08/14 03:06:29;;;;;;;6.93;4.90;;;20.80;87.80;;;;;;5039833;28;20220;-78
2023/08/14 03:08:55;;;;;;;7.70;4.83;;;20.80;88.00;;;;;;5036662;28;20420;-80
2023/08/14 03:11:21;;;;;;;6.50;4.93;;;20.70;87.80;;;;;;5026293;28;20468;-79
2023/08/14 03:13:47;;;;;;;7.53;5.53;;;20.70;88.10;;;;;;5042107;28;20810;-80
2023/08/14 03:16:16;;;;;;;8.70;4.90;;;20.70;88.40;;;;;;5035662;28;20513;-80
2023/08/14 03:18:43;;;;;;;7.73;5.50;;;20.70;88.70;;;;;;5055937;28;20420;-80
2023/08/14 03:21:09;;;;;;;8.00;5.60;;;20.60;89.00;;;;;;5041807;28;20506;-78
2023/08/14 03:23:36;;;;;;;8.57;5.80;;;20.60;89.00;;;;;;5054514;28;20187;-79
2023/08/14 03:26:05;;;;;;;8.40;5.40;;;20.70;89.00;;;;;;5053963;28;20417;-78
2023/08/14 03:28:31;;;;;;;9.20;5.73;;;20.70;89.00;;;;;;5034125;28;20417;-79
2023/08/14 03:30:57;;;;;;;9.30;5.80;;;20.50;89.00;;;;;;5036590;28;20481;-80
2023/08/14 03:33:22;;;;;;;8.87;5.50;;;20.60;89.50;;;;;;5046467;28;20441;-79
2023/08/14 03:35:53;;;;;;;8.57;5.43;;;20.70;89.60;;;;;;5048157;28;20245;-79
2023/08/14 03:38:18;;;;;;;7.73;5.30;;;20.60;89.60;;;;;;5056206;28;20194;-79
2023/08/14 03:40:44;;;;;;;8.90;5.67;;;20.50;89.20;;;;;;5042971;28;20440;-79
2023/08/14 03:43:11;;;;;;;9.33;5.23;;;20.40;89.00;;;;;;5053033;28;20431;-81
2023/08/14 03:45:37;;;;;;;8.03;5.40;;;20.40;89.20;;;;;;5042924;28;20194;-79
2023/08/14 03:48:06;;;;;;;8.33;5.30;;;20.50;89.30;;;;;;5049784;28;20435;-78
2023/08/14 03:50:32;;;;;;;12.47;5.77;;;20.40;89.50;;;;;;5044954;28;20232;-78
2023/08/14 03:53:18;;;;;;;9.03;5.30;;;20.40;89.50;;;;;;5054834;28;20450;-79
2023/08/14 03:55:46;;;;;;;7.90;5.07;;;20.40;89.60;;;;;;5058794;28;20193;-80
2023/08/14 03:58:11;;;;;;;7.80;5.07;;;20.40;89.30;;;;;;5059964;28;20483;-78
2023/08/14 04:00:37;;;;;;;9.50;5.40;;;20.40;89.20;;;;;;5053964;28;20459;-80
2023/08/14 04:03:05;;;;;;;6.30;4.63;;;20.30;89.00;;;;;;5046568;28;20188;-80
2023/08/14 04:05:31;;;;;;;8.07;5.43;;;20.30;88.90;;;;;;5050869;28;20224;-80
2023/08/14 04:07:56;;;;;;;11.03;6.60;;;20.30;89.00;;;;;;5040232;28;20421;-79
2023/08/14 04:10:25;;;;;;;10.50;5.40;;;20.20;89.00;;;;;;5035319;28;20208;-81
2023/08/14 04:12:51;;;;;;;7.17;5.70;;;20.20;89.30;;;;;;5046329;28;20913;-82
2023/08/14 04:15:17;;;;;;;8.10;5.20;;;20.30;89.50;;;;;;5048822;28;20530;-80
2023/08/14 04:17:44;;;;;;;9.77;6.00;;;20.20;89.50;;;;;;5051307;28;20177;-81
2023/08/14 04:20:11;;;;;;;8.93;5.80;;;20.30;89.60;;;;;;5056862;28;20523;-78
2023/08/14 04:22:37;;;;;;;7.00;5.10;;;20.30;89.70;;;;;;5047804;28;20202;-79
2023/08/14 04:25:03;;;;;;;8.73;5.87;;;20.30;89.70;;;;;;5051427;28;20440;-80
2023/08/14 04:27:34;;;;;;;9.40;5.90;;;20.30;89.90;;;;;;5040028;28;20239;-79
2023/08/14 04:30:00;;;;;;;10.93;6.13;;;20.30;89.60;;;;;;5040561;28;20431;-79
2023/08/14 04:32:29;;;;;;;10.67;5.47;;;20.30;89.20;;;;;;5052362;28;20447;-79
2023/08/14 04:34:54;;;;;;;8.07;5.10;;;20.30;89.20;;;;;;5056109;28;20467;-79
2023/08/14 04:37:20;;;;;;;9.37;4.87;;;20.30;88.90;;;;;;5052486;28;20839;-79
2023/08/14 04:39:46;;;;;;;7.27;5.23;;;20.30;88.70;;;;;;5046748;28;20192;-79
2023/08/14 04:42:11;;;;;;;9.00;5.27;;;20.20;88.60;;;;;;5041769;28;20177;-78
2023/08/14 04:44:37;;;;;;;7.70;5.80;;;20.20;88.90;;;;;;5044434;28;20332;-77
2023/08/14 04:47:02;;;;;;;8.20;5.60;;;20.20;89.20;;;;;;5052609;28;20205;-78
2023/08/14 04:49:29;;;;;;;7.20;4.53;;;20.30;89.30;;;;;;5081187;28;20269;-82
2023/08/14 04:51:56;;;;;;;7.90;4.80;;;20.30;89.30;;;;;;5047101;28;20286;-81
2023/08/14 04:54:28;;;;;;;7.53;4.70;;;20.30;89.00;;;;;;5051841;28;21155;-82
2023/08/14 04:56:55;;;;;;;10.60;5.60;;;20.20;88.90;;;;;;5056500;28;20485;-84
2023/08/14 04:59:21;;;;;;;6.83;4.40;;;20.20;88.90;;;;;;5055247;28;20428;-83
2023/08/14 05:01:47;;;;;;;7.17;4.90;;;20.20;88.70;;;;;;5057853;28;20456;-82
2023/08/14 05:04:13;;;;;;;9.83;4.33;;;20.20;88.70;;;;;;5057326;28;20201;-84
2023/08/14 05:06:39;;;;;;;6.80;4.50;;;20.10;88.70;;;;;;5057517;28;20452;-83
2023/08/14 05:09:07;;;;;;;7.50;4.57;;;20.10;88.70;;;;;;5059992;28;20182;-82
2023/08/14 05:11:32;;;;;;;6.20;4.87;;;20.10;88.60;;;;;;5054825;28;20259;-83
2023/08/14 05:13:59;;;;;;;5.67;4.53;;;20.20;88.60;;;;;;5061548;28;20527;-82
2023/08/14 05:16:25;;;;;;;8.27;5.00;;;20.20;88.70;;;;;;5059742;28;20809;-81
2023/08/14 05:18:51;;;;;;;9.47;5.27;;;20.30;88.90;;;;;;5059144;28;20420;-80
2023/08/14 05:21:17;;;;;;;8.50;5.10;;;20.40;88.90;;;;;;5060386;28;20229;-81
2023/08/14 05:23:42;;;;;;;6.33;3.77;;;20.40;88.60;;;;;;5051797;28;20220;-81
2023/08/14 05:26:09;;;;;;;8.73;4.20;;;20.40;88.30;;;;;;5055795;28;20215;-81
2023/08/14 05:28:35;;;;;;;8.80;4.83;;;20.50;87.60;;;;;;5050895;28;20205;-80
2023/08/14 05:31:01;;;;;;;8.40;4.13;;;20.50;87.60;;;;;;5052346;28;20469;-79
2023/08/14 05:33:27;;;;;;;7.00;4.47;;;20.70;87.70;;;;;;5055153;28;20460;-80
2023/08/14 05:35:57;;;;;;;8.10;4.50;;;20.80;87.80;;;;;;5058173;28;20193;-82
2023/08/14 05:38:24;;;;;;;8.30;5.43;;;20.90;87.80;;;;;;5049051;28;20206;-81
2023/08/14 05:40:50;;;;;;;9.67;4.83;;;21.00;87.40;;;;;;5046628;28;20463;-82
2023/08/14 05:43:17;;;;;;;8.30;5.00;;;21.10;87.40;;;;;;5068089;28;20425;-82
2023/08/14 05:45:45;;;;;;;6.90;4.70;;;21.10;87.30;;;;;;5045640;28;20269;-82
2023/08/14 05:48:12;;;;;;;7.67;4.67;;;21.20;87.10;;;;;;5052944;28;20453;-81
2023/08/14 05:50:39;;;;;;;5.97;4.17;;;21.10;86.50;;;;;;5054759;28;20469;-82
2023/08/14 05:53:07;;;;;;;7.43;5.03;;;21.20;86.00;;;;;;5046900;28;20497;-82
2023/08/14 05:55:38;;;;;;;9.17;4.77;;;21.30;85.50;;;;;;5050102;28;20471;-80
2023/08/14 05:58:06;;;;;;;8.50;4.97;;;21.30;85.20;;;;;;5047244;28;20425;-80
2023/08/14 06:00:32;;;;;;;7.83;4.20;;;21.30;84.60;;;;;;5049751;28;20501;-81
2023/08/14 06:02:59;;;;;;;9.73;5.30;;;21.40;84.00;;;;;;5060114;28;20438;-80
2023/08/14 06:05:24;;;;;;;7.23;4.23;;;21.30;83.40;;;;;;5049583;28;20450;-81
2023/08/14 06:07:53;;;;;;;7.50;4.83;;;21.30;83.70;;;;;;5057024;28;20186;-81
2023/08/14 06:10:19;;;;;;;7.37;4.60;;;21.40;83.80;;;;;;5049101;28;20230;-82
2023/08/14 06:12:45;;;;;;;8.03;4.63;;;21.50;84.30;;;;;;5048135;28;20446;-83
2023/08/14 06:15:14;;;;;;;7.60;4.60;;;21.60;84.40;;;;;;5044365;28;20466;-82
2023/08/14 06:17:40;;;;;;;7.87;4.57;;;21.70;84.30;;;;;;5050330;28;20465;-80
2023/08/14 06:20:06;;;;;;;6.53;4.23;;;21.70;84.10;;;;;;5054532;28;20630;-82
2023/08/14 06:22:39;;;;;;;7.10;4.60;;;21.80;83.70;;;;;;5057008;28;20430;-80
2023/08/14 06:25:07;;;;;;;10.73;4.27;;;21.80;83.80;;;;;;5050278;28;20445;-83
2023/08/14 06:27:33;;;;;;;7.47;4.60;;;21.90;84.00;;;;;;5046558;28;20531;-81
2023/08/14 06:29:59;;;;;;;7.73;5.47;;;21.90;84.00;;;;;;5040281;28;20432;-83
2023/08/14 06:32:26;;;;;;;6.43;4.80;;;21.90;84.00;;;;;;5042440;28;20438;-82
2023/08/14 06:34:54;;;;;;;5.43;4.30;;;22.00;83.80;;;;;;5045094;28;21230;-82
2023/08/14 06:37:23;;;;;;;7.57;4.73;;;21.90;83.70;;;;;;5043314;28;20456;-81
2023/08/14 06:39:49;;;;;;;9.07;5.80;;;21.80;84.10;;;;;;5047934;28;20434;-80
2023/08/14 06:42:15;;;;;;;8.30;5.07;;;21.90;84.00;;;;;;5041616;28;20446;-83
2023/08/14 06:44:41;;;;;;;7.07;4.40;;;21.90;83.40;;;;;;5045371;28;20198;-84
2023/08/14 06:47:09;;;;;;;11.20;7.17;;;21.90;83.60;;;;;;5051982;28;20439;-81
2023/08/14 06:49:36;;;;;;;7.93;5.03;;;22.00;83.80;;;;;;5055766;28;20424;-82
2023/08/14 06:52:01;;;;;;;15.37;6.20;;;22.00;83.80;;;;;;5043837;28;20455;-83
2023/08/14 06:54:27;;;;;;;13.03;7.10;;;22.10;83.40;;;;;;5046578;28;20476;-83
2023/08/14 06:56:53;;;;;;;10.97;5.87;;;22.20;82.20;;;;;;5036642;28;20305;-82
2023/08/14 06:59:23;;;;;;;8.87;5.20;;;22.20;81.40;;;;;;5039571;28;20229;-82
2023/08/14 07:01:49;;;;;;;9.87;5.80;;;22.20;81.10;;;;;;5037106;28;20756;-82
2023/08/14 07:04:15;;;;;;;7.90;5.70;;;22.20;80.60;;;;;;5048143;28;20466;-81
2023/08/14 07:06:43;;;;;;;7.00;5.07;;;22.20;80.20;;;;;;5046238;28;20220;-82
2023/08/14 07:09:10;;;;;;;8.40;4.90;;;22.40;79.50;;;;;;5050362;28;20217;-84
2023/08/14 07:11:39;;;;;;;7.07;4.40;;;22.40;79.70;;;;;;5033287;28;20488;-83
2023/08/14 07:14:07;;;;;;;11.17;5.00;;;22.40;80.20;;;;;;5057341;28;20493;-83
2023/08/14 07:16:33;;;;;;;7.03;4.90;;;22.40;79.50;;;;;;5040170;28;20528;-82
2023/08/14 07:18:58;;;;;;;7.30;5.20;;;22.40;79.50;;;;;;5044028;28;20696;-82
2023/08/14 07:21:24;;;;;;;7.63;4.73;;;22.40;79.70;;;;;;5043162;28;20240;-83
2023/08/14 07:23:50;;;;;;;9.87;4.10;;;22.40;79.50;;;;;;5044470;28;20425;-83
2023/08/14 07:26:16;;;;;;;7.73;5.00;;;22.30;78.90;;;;;;5044331;28;20443;-82
2023/08/14 07:28:42;;;;;;;6.47;4.70;;;22.40;79.00;;;;;;5047106;28;20458;-83
2023/08/14 07:31:08;;;;;;;6.03;4.27;;;22.50;79.50;;;;;;5046647;28;20225;-82
2023/08/14 07:33:34;;;;;;;8.10;5.50;;;22.60;79.50;;;;;;5046191;28;20189;-82
2023/08/14 07:36:02;;;;;;;9.77;4.80;;;22.70;79.00;;;;;;5041357;28;20426;-81
2023/08/14 07:38:27;;;;;;;7.63;4.27;;;22.90;78.90;;;;;;5050610;28;20469;-82
2023/08/14 07:40:54;;;;;;;10.13;4.43;;;23.00;78.10;;;;;;5031763;28;20466;-83
2023/08/14 07:43:19;;;;;;;8.10;4.10;;;23.10;77.40;;;;;;5038503;28;20188;-81
2023/08/14 07:45:45;;;;;;;7.80;4.93;;;23.10;77.40;;;;;;5038723;28;20420;-81
2023/08/14 07:48:11;;;;;;;7.17;4.63;;;23.20;77.30;;;;;;5046492;28;20176;-81
2023/08/14 07:50:36;;;;;;;7.70;4.60;;;23.20;77.60;;;;;;5052004;28;20217;-82
2023/08/14 07:53:03;;;;;;;9.30;4.90;;;23.30;77.00;;;;;;5045216;28;20803;-83
2023/08/14 07:55:29;;;;;;;5.80;4.10;;;23.40;76.70;;;;;;5049663;28;20222;-83
2023/08/14 07:57:54;;;;;;;6.80;4.93;;;23.40;77.00;;;;;;5048991;28;20458;-82
2023/08/14 08:00:20;;;;;;;10.23;5.17;;;23.40;77.00;;;;;;5053632;28;20592;-82
2023/08/14 08:02:46;;;;;;;8.03;5.00;;;23.50;77.40;;;;;;5047334;28;20183;-83
2023/08/14 08:05:11;;;;;;;8.53;4.20;;;23.60;77.10;;;;;;5048581;28;20528;-81
2023/08/14 08:07:37;;;;;;;7.60;4.70;;;23.70;77.30;;;;;;5041076;28;20664;-83
2023/08/14 08:10:03;;;;;;;6.20;4.10;;;23.80;77.10;;;;;;5050197;28;20435;-82
2023/08/14 08:12:29;;;;;;;6.60;4.60;;;23.90;76.70;;;;;;5037703;28;20184;-84
2023/08/14 08:14:55;;;;;;;9.20;4.27;;;24.00;76.80;;;;;;5048664;28;20299;-84
2023/08/14 08:17:22;;;;;;;8.97;4.23;;;24.10;76.70;;;;;;5043924;28;20222;-82
2023/08/14 08:19:47;;;;;;;7.10;4.40;;;24.20;76.20;;;;;;5051275;28;20430;-82
2023/08/14 08:22:13;;;;;;;5.37;3.87;;;24.30;76.40;;;;;;5047233;28;20445;-81
2023/08/14 08:24:39;;;;;;;6.03;4.53;;;24.40;75.40;;;;;;5056053;28;20285;-82
2023/08/14 08:27:06;;;;;;;6.23;3.97;;;24.40;75.20;;;;;;5054273;28;20418;-83
2023/08/14 08:29:32;;;;;;;6.37;4.40;;;24.40;75.20;;;;;;5059721;28;20400;-82
2023/08/14 08:31:58;;;;;;;5.07;4.00;;;24.60;75.10;;;;;;5048549;28;20472;-82
2023/08/14 08:34:23;;;;;;;6.67;4.20;;;24.70;74.30;;;;;;5063021;28;20194;-81
2023/08/14 08:36:50;;;;;;;5.20;3.37;;;24.80;73.70;;;;;;5061344;28;20426;-82
2023/08/14 08:39:16;;;;;;;4.90;3.60;;;24.70;73.30;;;;;;5054533;28;20183;-82
2023/08/14 08:41:46;;;;;;;6.27;4.30;;;24.80;73.20;;;;;;5055493;28;20469;-82
2023/08/14 08:44:21;;;;;;;6.57;4.40;;;24.90;73.20;;;;;;5061332;28;20469;-82
2023/08/14 08:46:56;;;;;;;4.43;3.70;;;25.10;72.10;;;;;;5057493;28;20438;-81
2023/08/14 08:49:22;;;;;;;5.10;3.53;;;25.20;72.30;;;;;;5057911;28;20496;-82
2023/08/14 08:51:50;;;;;;;5.90;4.23;;;25.20;71.30;;;;;;5045228;28;21045;-81
2023/08/14 08:54:19;;;;;;;6.13;3.90;;;25.40;71.00;;;;;;5043632;28;20484;-81
2023/08/14 08:56:45;;;;;;;8.47;4.53;;;25.50;70.80;;;;;;5044750;28;20453;-81
2023/08/14 08:59:14;;;;;;;4.47;3.70;;;25.70;69.50;;;;;;5046258;28;20422;-80
2023/08/14 09:01:41;;;;;;;6.00;3.57;;;25.90;69.50;;;;;;5049851;28;20486;-83
2023/08/14 09:04:08;;;;;;;6.10;4.37;;;26.00;69.70;;;;;;5054012;28;20467;-82
2023/08/14 09:06:34;;;;;;;6.70;4.93;;;26.10;68.90;;;;;;5053915;28;20442;-82
2023/08/14 09:09:00;;;;;;;6.27;3.70;;;26.30;68.20;;;;;;5045432;28;20426;-82
2023/08/14 09:11:27;;;;;;;5.33;4.50;;;26.40;68.20;;;;;;5040157;28;20454;-82
2023/08/14 09:13:52;;;;;;;4.77;4.13;;;26.50;67.60;;;;;;5044683;28;20208;-80
2023/08/14 09:16:18;;;;;;;5.80;3.90;;;26.70;66.30;;;;;;5061801;28;20499;-81
2023/08/14 09:18:45;;;;;;;6.90;4.47;;;26.80;65.30;;;;;;5063433;28;20202;-82
2023/08/14 09:21:12;;;;;;;6.67;4.40;;;26.70;65.60;;;;;;5057159;28;20227;-81
2023/08/14 09:23:41;;;;;;;6.57;4.87;;;26.70;66.30;;;;;;5063672;28;20426;-80
2023/08/14 09:26:12;;;;;;;5.20;4.17;;;26.80;66.00;;;;;;5047060;28;20459;-83
2023/08/14 09:28:39;;;;;;;5.53;4.40;;;26.90;66.00;;;;;;5052499;28;20500;-84
2023/08/14 09:31:09;;;;;;;7.23;4.27;;;27.10;66.00;;;;;;5040044;28;21042;-84
2023/08/14 09:33:44;;;;;;;7.43;5.50;;;27.20;65.80;;;;;;5046348;28;20459;-84
2023/08/14 09:36:11;;;;;;;5.60;4.80;;;27.40;65.30;;;;;;5043825;28;20421;-84
2023/08/14 09:38:37;;;;;;;6.90;4.27;;;27.50;64.50;;;;;;5041120;28;20416;-82
2023/08/14 09:41:03;;;;;;;5.43;4.87;;;27.70;63.50;;;;;;5037310;28;20501;-83
2023/08/14 09:43:30;;;;;;;6.00;4.60;;;27.80;63.40;;;;;;5049884;28;20424;-83
2023/08/14 09:45:58;;;;;;;7.10;4.50;;;27.80;62.90;;;;;;5047091;28;20223;-83
2023/08/14 09:48:47;;;;;;;6.20;4.57;;;27.70;63.20;;;;;;5042837;28;20435;-82
2023/08/14 09:51:18;;;;;;;8.07;5.33;;;27.90;63.50;;;;;;5044307;28;21033;-82
2023/08/14 09:53:57;;;;;;;7.80;5.37;;;28.00;63.90;;;;;;5060287;28;20446;-82
2023/08/14 09:56:24;;;;;;;6.73;5.03;;;28.10;62.80;;;;;;5051859;28;20445;-82
2023/08/14 09:58:50;;;;;;;6.10;4.50;;;28.10;63.20;;;;;;5048173;28;20434;-82
2023/08/14 10:01:19;;;;;;;4.77;4.00;;;28.20;62.90;;;;;;5051180;28;20543;-84
2023/08/14 10:03:53;;;;;;;6.23;4.47;;;28.30;62.60;;;;;;5056253;28;20431;-85
2023/08/14 10:06:23;;;;;;;6.33;4.93;;;28.40;62.60;;;;;;5054009;28;20468;-82
2023/08/14 10:09:01;;;;;;;7.43;4.80;;;28.50;62.80;;;;;;5054761;28;20458;-82
2023/08/14 10:11:29;;;;;;;7.63;5.47;;;28.70;61.60;;;;;;5046768;28;20486;-82
2023/08/14 10:14:00;;;;;;;6.93;5.17;;;28.70;61.30;;;;;;5042333;28;20463;-81
2023/08/14 10:16:31;;;;;;;7.50;5.70;;;28.80;61.30;;;;;;5042076;28;20458;-83
2023/08/14 10:18:57;;;;;;;6.10;4.73;;;28.90;61.20;;;;;;5041345;28;21000;-83
2023/08/14 10:21:32;;;;;;;6.10;4.93;;;29.10;60.70;;;;;;5036776;28;20455;-83
2023/08/14 10:23:59;;;;;;;8.57;4.40;;;29.50;60.60;;;;;;5042332;28;20424;-84
2023/08/14 10:26:25;;;;;;;7.37;4.90;;;29.70;60.40;;;;;;5043136;28;20424;-83
2023/08/14 10:28:53;;;;;;;7.70;5.50;;;29.90;59.60;;;;;;5040264;28;20427;-83
2023/08/14 10:31:19;;;;;;;4.83;4.40;;;30.00;59.60;;;;;;5043538;28;20467;-82
2023/08/14 10:33:45;;;;;;;5.90;4.80;;;30.20;59.10;;;;;;5037812;28;20420;-81
2023/08/14 10:36:19;;;;;;;6.53;5.37;;;30.30;58.80;;;;;;5032076;28;20427;-82
2023/08/14 10:38:48;;;;;;;7.70;5.50;;;30.30;59.20;;;;;;5033519;28;20497;-82
2023/08/14 10:41:16;;;;;;;6.67;5.20;;;30.30;59.50;;;;;;5038356;28;20465;-82
2023/08/14 10:43:42;;;;;;;8.17;5.00;;;30.80;59.60;;;;;;5056112;28;20431;-84
2023/08/14 10:46:10;;;;;;;7.20;5.53;;;31.30;59.10;;;;;;5039375;28;20436;-83
2023/08/14 10:48:40;;;;;;;6.80;5.80;;;31.70;58.80;;;;;;5041715;28;20428;-83
2023/08/14 10:51:13;;;;;;;6.17;4.80;;;32.00;58.10;;;;;;5034402;28;20459;-84
2023/08/14 10:53:40;;;;;;;6.03;5.23;;;32.00;58.80;;;;;;5044554;28;20447;-85
2023/08/14 10:56:07;;;;;;;8.40;5.10;;;32.40;57.40;;;;;;5040467;28;20986;-84
2023/08/14 10:58:38;;;;;;;8.50;5.50;;;32.50;56.40;;;;;;5042288;28;20440;-81
2023/08/14 11:01:04;;;;;;;9.30;5.53;;;31.60;56.80;;;;;;5032745;28;20491;-83
2023/08/14 11:03:54;;;;;;;7.03;5.37;;;31.40;58.10;;;;;;5036973;28;20454;-82
2023/08/14 11:06:28;;;;;;;6.00;5.03;;;31.50;57.30;;;;;;5040303;28;20805;-82
2023/08/14 11:09:04;;;;;;;6.47;4.70;;;31.20;58.00;;;;;;5056835;28;20508;-81
2023/08/14 11:11:30;;;;;;;6.17;5.03;;;31.40;57.60;;;;;;5050462;28;20474;-83
2023/08/14 11:13:58;;;;;;;5.10;4.83;;;31.40;57.60;;;;;;5043493;28;20496;-84
2023/08/14 11:16:25;;;;;;;7.47;5.33;;;31.50;57.40;;;;;;5045518;28;20591;-82
2023/08/14 11:18:52;;;;;;;6.13;4.57;;;31.30;57.30;;;;;;5045874;28;20598;-83
2023/08/14 11:21:19;;;;;;;7.30;5.57;;;31.50;57.40;;;;;;5042797;28;20554;-81
2023/08/14 11:23:44;;;;;;;5.50;5.23;;;31.20;58.10;;;;;;5049574;28;20410;-82
2023/08/14 11:26:10;;;;;;;8.90;5.10;;;31.40;57.60;;;;;;5059895;28;20418;-81
2023/08/14 11:28:35;;;;;;;7.70;5.63;;;31.40;56.80;;;;;;5038184;28;20299;-83
2023/08/14 11:31:01;;;;;;;7.33;5.13;;;31.30;57.40;;;;;;5050725;28;20213;-81
2023/08/14 11:33:27;;;;;;;6.17;5.33;;;31.40;57.70;;;;;;5044783;28;20224;-83
2023/08/14 11:35:53;;;;;;;7.80;5.67;;;31.40;57.40;;;;;;5040341;28;20713;-81
2023/08/14 11:38:23;;;;;;;5.90;5.10;;;31.30;57.30;;;;;;5057548;28;20181;-83
2023/08/14 11:40:48;;;;;;;9.13;6.33;;;31.20;57.80;;;;;;5048381;28;20500;-84
2023/08/14 11:43:15;;;;;;;7.47;6.03;;;31.30;57.70;;;;;;5049834;28;20427;-81
2023/08/14 11:45:41;;;;;;;9.23;5.40;;;31.50;57.60;;;;;;5047836;28;20193;-83
2023/08/14 11:48:11;;;;;;;6.97;5.27;;;32.00;56.60;;;;;;5048080;28;20440;-83
2023/08/14 11:50:37;;;;;;;5.77;4.60;;;32.30;57.00;;;;;;5048728;28;20463;-84
2023/08/14 11:53:03;;;;;;;6.90;5.40;;;32.70;56.50;;;;;;5046326;28;20436;-83
2023/08/14 11:55:29;;;;;;;7.50;5.40;;;33.10;54.40;;;;;;5046812;28;20688;-84
2023/08/14 11:57:56;;;;;;;6.77;6.03;;;33.50;54.50;;;;;;5042686;28;20443;-84
2023/08/14 12:00:21;;;;;;;8.77;6.40;;;33.20;54.00;;;;;;5043685;28;20260;-83
2023/08/14 12:02:47;;;;;;;7.10;4.80;;;32.80;54.20;;;;;;5041321;28;20427;-83
2023/08/14 12:05:13;;;;;;;7.47;5.63;;;31.90;55.40;;;;;;5043956;28;20197;-83
2023/08/14 12:07:42;;;;;;;10.87;5.83;;;32.40;56.20;;;;;;5037680;28;20185;-85
2023/08/14 12:10:08;;;;;;;7.67;5.30;;;32.80;54.10;;;;;;5034660;28;20218;-83
2023/08/14 12:12:36;;;;;;;5.70;4.90;;;33.10;54.80;;;;;;5042579;28;20412;-83
2023/08/14 12:15:01;;;;;;;5.63;5.03;;;33.50;53.20;;;;;;5041454;28;21016;-82
2023/08/14 12:17:29;;;;;;;5.20;4.83;;;33.30;53.30;;;;;;5081355;28;20425;-81
2023/08/14 12:19:57;;;;;;;7.00;4.97;;;33.30;53.40;;;;;;5051738;28;20193;-81
2023/08/14 12:22:24;;;;;;;5.00;4.47;;;33.40;52.10;;;;;;5039120;28;20544;-83
2023/08/14 12:24:50;;;;;;;8.47;5.03;;;33.30;52.20;;;;;;5039734;28;20516;-81
2023/08/14 12:27:24;;;;;;;7.40;5.70;;;33.30;52.90;;;;;;5049577;28;20574;-83
2023/08/14 12:29:53;;;;;;;7.03;5.50;;;33.20;52.60;;;;;;5044805;28;20424;-82
2023/08/14 12:32:23;;;;;;;7.97;5.70;;;33.00;53.00;;;;;;5075404;28;20527;-83
2023/08/14 12:34:50;;;;;;;9.37;6.00;;;32.10;55.60;;;;;;5045721;28;20654;-82
2023/08/14 12:37:16;;;;;;;7.53;6.03;;;31.40;57.30;;;;;;5046589;28;20769;-84
2023/08/14 12:39:44;;;;;;;10.00;5.90;;;31.00;57.80;;;;;;5041841;28;20431;-81
2023/08/14 12:42:12;;;;;;;8.87;5.63;;;30.70;57.80;;;;;;5042169;28;20189;-83
2023/08/14 12:44:38;;;;;;;6.40;5.20;;;29.30;62.20;;;;;;5043463;28;20920;-82
2023/08/14 12:47:04;;;;;;;7.13;5.17;;;28.90;63.20;;;;;;5045440;28;21080;-83